This is the latest recevied weather packets stored in our database for station/object SM6KNE. If no packets are shown the sender has not sent any weather packets the latest 10 day(s).
| Time | Temp. | Humidity | Pressure | Rain* | Wind** | Luminosity | Snow |
|---|---|---|---|---|---|---|---|
| 1777625123 | 16.11° C | 50% | 1027.2 hPa | - | - | - | - |
| 1777622143 | 13.89° C | 58% | 1027.2 hPa | - | - | - | - |
| 1777620921 | 12.78° C | 65% | 1027.2 hPa | - | - | - | - |
| 1777619723 | 11.67° C | 75% | 1027.2 hPa | - | - | - | - |
| 1777616723 | 8.89° C | 87% | 1027.2 hPa | - | - | - | - |
| 1777614324 | 7.22° C | 88% | 1027.2 hPa | - | - | - | - |
| 1777602324 | 3.89° C | 83% | 1027.2 hPa | - | - | - | - |
| 1777601724 | 3.89° C | 83% | 1027.2 hPa | - | - | - | - |
| 1777599924 | 3.89° C | 83% | 1027.2 hPa | - | - | - | - |
| 1777595745 | 3.33° C | 81% | 1028.2 hPa | - | - | - | - |
| 1777586123 | 5° C | 79% | 1028.2 hPa | - | - | - | - |
| 1777572323 | 10° C | 67% | 1029.2 hPa | - | - | - | - |
| 1777571124 | 10° C | 67% | 1029.2 hPa | - | - | - | - |
| 1777569323 | 13.33° C | 60% | 1029.2 hPa | - | - | - | - |
| 1777566923 | 16.11° C | 54% | 1029.2 hPa | - | - | - | - |
| 1777562717 | 20.56° C | 48% | 1029.2 hPa | - | - | - | - |
| 1777560323 | 18.89° C | 49% | 1029.2 hPa | - | - | - | - |
| 1777554343 | 21.11° C | 48% | 1030.2 hPa | - | - | - | - |
| 1777553723 | 21.11° C | 48% | 1030.2 hPa | - | - | - | - |
| 1777551927 | 21.11° C | 49% | 1030.2 hPa | - | - | - | - |
| 1777546523 | 18.89° C | 58% | 1030.2 hPa | - | - | - | - |
| 1777543524 | 15.56° C | 65% | 1030.2 hPa | - | - | - | - |
| 1777541126 | 13.89° C | 71% | 1030.2 hPa | - | - | - | - |
| 1777540543 | 13.89° C | 72% | 1030.2 hPa | - | - | - | - |
| 1777538123 | 12.78° C | 76% | 1030.2 hPa | - | - | - | - |
* Rain since midnight (hover to see other rain measurements)
** Current wind speed in m/s (hover to see current wind gust speed)